Time;durP1;ratioP1;P1;durP2;ratioP2;P2;SDS_P1;SDS_P2;PMS_P1;PMS_P2;Temp;Humidity;BMP_temperature;BMP_pressure;BME280_temperature;BME280_humidity;BME280_pressure;Samples;Min_cycle;Max_cycle;Signal;HPM_P1;HPM_P2
2021/10/18 19:22:05;;;;;;;38.28;22.60;;;15.70;67.20;;;;;;5071912;28;20384;-95
2021/10/18 19:24:31;;;;;;;48.97;32.08;;;14.50;67.70;;;;;;5070410;28;20029;-94
2021/10/18 19:26:57;;;;;;;53.88;36.42;;;13.00;69.80;;;;;;5070457;28;20029;-95
2021/10/18 19:29:23;;;;;;;41.15;22.15;;;12.40;71.30;;;;;;5072388;28;20031;-96
2021/10/18 19:31:55;;;;;;;35.65;21.83;;;11.30;74.30;;;;;;5070644;28;20027;-96
2021/10/18 19:34:21;;;;;;;31.73;21.52;;;9.90;79.10;;;;;;5070479;28;20093;-95
2021/10/18 19:36:49;;;;;;;44.63;27.33;;;9.30;81.50;;;;;;5070438;28;20024;-96
2021/10/18 19:39:14;;;;;;;72.05;40.58;;;8.70;84.00;;;;;;5070318;28;20120;-95
2021/10/18 19:41:40;;;;;;;84.10;48.05;;;8.10;87.60;;;;;;5070298;28;20112;-96
2021/10/18 19:44:26;;;;;;;90.63;53.17;;;7.90;88.80;;;;;;5072991;28;20029;-96
2021/10/18 19:50:37;;;;;;;63.60;37.85;;;7.30;91.60;;;;;;5024218;28;20031;-96
2021/10/18 20:04:19;;;;;;;94.85;57.20;;;6.90;93.70;;;;;;5026344;28;20078;-96
2021/10/18 20:38:46;;;;;;;51.08;28.58;;;6.50;97.70;;;;;;4929769;28;20044;-96
2021/10/18 20:41:18;;;;;;;41.75;25.45;;;6.40;97.80;;;;;;4932536;29;20052;-96
2021/10/18 20:43:56;;;;;;;43.63;25.48;;;6.40;97.90;;;;;;4923278;29;20020;-96
2021/10/18 21:04:16;;;;;;;;;;;;;;;;;;;;;
2021/10/18 21:41:10;;;;;;;46.95;26.80;;;6.10;99.40;;;;;;4953112;28;20126;-96
2021/10/18 21:43:38;;;;;;;45.35;27.73;;;6.10;99.80;;;;;;5060635;28;20064;-96
2021/10/18 21:46:27;;;;;;;42.13;26.15;;;6.10;99.80;;;;;;5047613;28;20052;-96
2021/10/18 21:55:24;;;;;;;47.63;26.27;;;6.20;99.80;;;;;;5042853;28;20049;-96
2021/10/18 22:02:00;;;;;;;42.85;24.90;;;6.30;99.50;;;;;;4926981;29;20039;-96
2021/10/18 22:04:34;;;;;;;41.75;25.75;;;6.40;99.60;;;;;;4905736;29;20071;-96
2021/10/18 22:07:32;;;;;;;38.88;25.17;;;6.40;99.50;;;;;;4906808;29;20495;-96
2021/10/18 22:10:00;;;;;;;43.55;26.02;;;6.40;99.40;;;;;;4920258;29;20036;-96
2021/10/18 22:12:25;;;;;;;44.38;24.08;;;6.40;99.30;;;;;;5026382;28;20033;-96
2021/10/18 22:15:56;;;;;;;41.05;24.20;;;6.50;99.30;;;;;;5049147;28;20036;-96
2021/10/18 22:18:22;;;;;;;43.33;26.25;;;6.50;99.30;;;;;;4985587;28;20038;-96
2021/10/18 22:21:21;;;;;;;;;;;;;;;;;;;;;
2021/10/18 22:23:47;;;;;;;42.60;24.90;;;6.50;99.50;;;;;;5060522;28;20124;-96
2021/10/18 22:26:47;;;;;;;41.78;24.05;;;6.60;99.30;;;;;;5051597;28;20087;-96
2021/10/18 22:30:40;;;;;;;45.25;25.42;;;6.70;99.20;;;;;;5045454;28;20041;-96
2021/10/18 22:33:14;;;;;;;38.97;24.98;;;6.60;99.20;;;;;;5063346;28;20025;-96
2021/10/18 22:35:40;;;;;;;48.85;26.08;;;6.70;99.30;;;;;;5060021;28;20086;-96
2021/10/18 22:44:51;;;;;;;40.45;24.30;;;6.60;99.50;;;;;;4995185;28;20030;-96
2021/10/18 22:47:27;;;;;;;38.05;23.95;;;6.60;99.60;;;;;;5194680;22;20048;-96
2021/10/18 22:49:53;;;;;;;42.58;24.70;;;6.70;99.50;;;;;;5108570;28;20039;-96
2021/10/18 23:18:10;;;;;;;36.20;22.55;;;7.10;98.50;;;;;;5284699;22;20400;-96
2021/10/18 23:20:36;;;;;;;39.25;22.33;;;7.10;98.50;;;;;;5128926;22;20061;-96
2021/10/18 23:25:37;;;;;;;41.05;22.38;;;7.20;98.40;;;;;;5402831;22;20432;-96
2021/10/18 23:28:04;;;;;;;38.85;21.98;;;7.20;98.30;;;;;;5044650;28;20057;-96
2021/10/18 23:30:30;;;;;;;39.38;23.42;;;7.30;98.10;;;;;;5047840;28;20029;-94
2021/10/18 23:33:02;;;;;;;37.63;22.13;;;7.30;98.10;;;;;;5050903;28;20012;-96
2021/10/18 23:35:29;;;;;;;40.33;22.23;;;7.30;98.10;;;;;;5043629;28;20040;-96
2021/10/18 23:37:55;;;;;;;38.80;23.08;;;7.20;98.10;;;;;;5042868;28;20025;-96
2021/10/18 23:40:21;;;;;;;36.80;22.05;;;7.20;98.10;;;;;;5042469;28;20097;-96
2021/10/18 23:42:59;;;;;;;36.72;21.27;;;7.30;98.20;;;;;;5042721;28;20005;-96
2021/10/18 23:45:25;;;;;;;37.55;21.30;;;7.20;98.00;;;;;;5041799;28;20464;-96
2021/10/18 23:48:24;;;;;;;37.22;22.15;;;7.10;98.20;;;;;;5043970;28;20016;-96
2021/10/18 23:57:42;;;;;;;41.75;21.98;;;7.00;98.60;;;;;;5065454;28;20067;-96
